Time;durP1;ratioP1;P1;durP2;ratioP2;P2;SDS_P1;SDS_P2;PMS_P1;PMS_P2;Temp;Humidity;BMP_temperature;BMP_pressure;BME280_temperature;BME280_humidity;BME280_pressure;Samples;Min_cycle;Max_cycle;Signal;HPM_P1;HPM_P2
2023/09/22 00:00:10;;;;;;;3.53;2.30;;;28.60;53.80;;;;;;4991917;28;20090;-71
2023/09/22 00:02:39;;;;;;;2.42;1.80;;;28.50;53.90;;;;;;4995616;28;20053;-72
2023/09/22 00:05:07;;;;;;;4.65;1.70;;;28.60;54.00;;;;;;4995427;28;20110;-72
2023/09/22 00:07:33;;;;;;;3.90;1.73;;;28.60;54.00;;;;;;4995395;28;20045;-72
2023/09/22 00:09:59;;;;;;;2.47;2.00;;;28.60;54.00;;;;;;4994600;28;20042;-72
2023/09/22 00:12:25;;;;;;;2.15;1.63;;;28.70;54.10;;;;;;4995533;28;20038;-72
2023/09/22 00:14:51;;;;;;;2.03;1.67;;;28.60;54.10;;;;;;4995352;28;20093;-72
2023/09/22 00:17:17;;;;;;;1.77;1.67;;;28.70;54.10;;;;;;4995274;28;20447;-72
2023/09/22 00:19:45;;;;;;;3.90;1.90;;;28.50;54.00;;;;;;4995066;28;20037;-72
2023/09/22 00:22:11;;;;;;;3.28;1.85;;;28.60;54.00;;;;;;4995236;28;20121;-72
2023/09/22 00:24:37;;;;;;;2.13;1.83;;;28.70;54.00;;;;;;4995016;28;21045;-72
2023/09/22 00:27:03;;;;;;;3.67;1.80;;;28.60;54.00;;;;;;4993883;28;20466;-70
2023/09/22 00:29:29;;;;;;;3.80;1.63;;;28.50;54.00;;;;;;4994703;28;20088;-71
2023/09/22 00:31:56;;;;;;;4.03;1.65;;;28.60;54.00;;;;;;4994878;28;20072;-71
2023/09/22 00:34:22;;;;;;;2.45;1.70;;;28.60;54.00;;;;;;4994737;28;20034;-70
2023/09/22 00:36:49;;;;;;;1.75;1.20;;;28.60;53.90;;;;;;4994449;28;20471;-71
2023/09/22 00:39:15;;;;;;;4.82;1.67;;;28.60;53.80;;;;;;4994353;28;20039;-70
2023/09/22 00:41:41;;;;;;;3.75;1.52;;;28.70;53.90;;;;;;4994442;28;20100;-69
2023/09/22 00:44:07;;;;;;;4.18;1.50;;;28.60;53.90;;;;;;4994633;28;20034;-70
2023/09/22 00:46:33;;;;;;;2.05;1.38;;;28.60;53.90;;;;;;4994414;28;20037;-69
2023/09/22 00:48:59;;;;;;;1.55;1.45;;;28.50;53.80;;;;;;4993988;28;20387;-69
2023/09/22 00:51:25;;;;;;;2.58;1.55;;;28.50;53.90;;;;;;4993804;28;20057;-72
2023/09/22 00:53:52;;;;;;;4.57;1.50;;;28.60;53.90;;;;;;4977164;28;20034;-72
2023/09/22 00:56:20;;;;;;;3.60;1.65;;;28.60;53.90;;;;;;5006774;28;20045;-72
2023/09/22 00:58:50;;;;;;;3.92;1.33;;;28.50;53.80;;;;;;5013521;28;20065;-72
2023/09/22 01:01:20;;;;;;;2.70;1.67;;;28.50;53.80;;;;;;5013855;28;20037;-72
2023/09/22 01:03:48;;;;;;;6.00;1.75;;;28.50;53.90;;;;;;5013756;28;20418;-73
2023/09/22 01:06:14;;;;;;;3.22;1.40;;;28.60;53.90;;;;;;5012234;28;20045;-73
2023/09/22 01:08:40;;;;;;;3.03;1.40;;;28.40;54.00;;;;;;5014057;28;20048;-73
2023/09/22 01:11:06;;;;;;;5.22;1.60;;;28.50;54.00;;;;;;5012505;28;20029;-71
2023/09/22 01:13:32;;;;;;;4.95;1.80;;;28.40;54.00;;;;;;5014061;28;20061;-71
2023/09/22 01:15:58;;;;;;;3.30;1.63;;;28.50;54.00;;;;;;5012241;28;20462;-74
2023/09/22 01:18:25;;;;;;;1.58;1.33;;;28.50;54.00;;;;;;5013336;28;20485;-73
2023/09/22 01:20:51;;;;;;;2.28;1.80;;;28.50;54.00;;;;;;5012295;28;20086;-71
2023/09/22 01:23:17;;;;;;;2.55;1.92;;;28.50;54.00;;;;;;4962728;28;20085;-71
2023/09/22 01:25:43;;;;;;;3.22;1.75;;;28.40;54.10;;;;;;5012376;28;20042;-73
2023/09/22 01:28:10;;;;;;;2.15;1.70;;;28.50;54.00;;;;;;5012036;28;20121;-73
2023/09/22 01:30:41;;;;;;;2.05;1.85;;;28.50;54.10;;;;;;5013054;28;20040;-73
2023/09/22 01:33:07;;;;;;;2.28;1.50;;;28.60;54.10;;;;;;5013017;28;20065;-73
2023/09/22 01:35:35;;;;;;;1.65;1.55;;;28.50;54.10;;;;;;5012018;28;20042;-73
2023/09/22 01:38:24;;;;;;;3.55;1.90;;;28.50;54.10;;;;;;5011970;28;20091;-72
2023/09/22 01:40:51;;;;;;;3.42;1.65;;;28.50;54.10;;;;;;5012040;28;20062;-72
2023/09/22 01:43:18;;;;;;;3.10;1.80;;;28.50;54.00;;;;;;5012896;28;20077;-72
2023/09/22 01:45:44;;;;;;;2.70;2.20;;;28.30;54.10;;;;;;5012245;28;20029;-72
2023/09/22 01:48:10;;;;;;;2.45;1.58;;;28.50;54.00;;;;;;5011707;28;20116;-71
2023/09/22 01:50:40;;;;;;;2.45;1.73;;;28.50;54.10;;;;;;5013128;28;20092;-72
2023/09/22 01:53:10;;;;;;;3.10;1.77;;;28.50;54.10;;;;;;5013087;28;20129;-70
2023/09/22 01:55:41;;;;;;;6.05;2.03;;;28.40;54.10;;;;;;5013259;28;20107;-71
2023/09/22 01:58:08;;;;;;;2.67;1.70;;;28.40;54.10;;;;;;5011343;28;20062;-71
2023/09/22 02:00:35;;;;;;;2.38;1.50;;;28.40;54.20;;;;;;5012750;28;20045;-71
2023/09/22 02:03:01;;;;;;;2.75;1.67;;;28.30;54.20;;;;;;5008503;28;20038;-70
2023/09/22 02:05:29;;;;;;;3.55;1.67;;;28.40;54.20;;;;;;5013067;28;20025;-71
2023/09/22 02:07:57;;;;;;;4.75;1.55;;;28.40;54.30;;;;;;4995083;28;20042;-71
2023/09/22 02:10:23;;;;;;;2.13;1.75;;;28.40;54.40;;;;;;5011344;28;20053;-72
2023/09/22 02:12:50;;;;;;;2.42;1.30;;;28.30;54.40;;;;;;5011417;28;20053;-72
2023/09/22 02:15:16;;;;;;;1.80;1.70;;;28.40;54.40;;;;;;5012339;28;20220;-72
2023/09/22 02:17:46;;;;;;;3.88;1.42;;;28.40;54.50;;;;;;5012622;28;20122;-71
2023/09/22 02:20:22;;;;;;;1.40;1.30;;;28.40;54.40;;;;;;4994790;28;20105;-72
2023/09/22 02:22:50;;;;;;;1.52;1.38;;;28.50;54.50;;;;;;5012574;28;20053;-71
2023/09/22 02:25:19;;;;;;;2.33;1.42;;;28.40;54.50;;;;;;5011018;28;20121;-72
2023/09/22 02:27:48;;;;;;;3.20;1.67;;;28.40;54.50;;;;;;5012705;28;20524;-71
2023/09/22 02:30:14;;;;;;;5.85;2.05;;;28.40;54.50;;;;;;5012190;28;20077;-71
2023/09/22 02:32:43;;;;;;;4.18;1.60;;;28.50;54.50;;;;;;5010634;28;20064;-72
2023/09/22 02:35:11;;;;;;;2.65;1.75;;;28.40;54.50;;;;;;5012340;28;20029;-72
2023/09/22 02:37:37;;;;;;;1.75;1.40;;;28.40;54.50;;;;;;4994319;28;20037;-73
2023/09/22 02:40:03;;;;;;;1.50;1.40;;;28.40;54.50;;;;;;5012111;28;20496;-72
2023/09/22 02:42:29;;;;;;;2.42;1.73;;;28.50;54.50;;;;;;5009971;28;20125;-72
2023/09/22 02:44:55;;;;;;;1.77;1.45;;;28.50;54.50;;;;;;5011014;28;20033;-71
2023/09/22 02:47:22;;;;;;;1.60;1.50;;;28.40;54.50;;;;;;4996971;28;20030;-73
2023/09/22 02:49:49;;;;;;;4.53;2.17;;;28.40;54.50;;;;;;4992396;28;20037;-73
2023/09/22 02:52:15;;;;;;;1.65;1.05;;;28.30;54.50;;;;;;5006752;28;20092;-72
2023/09/22 02:54:41;;;;;;;1.67;1.58;;;28.30;54.60;;;;;;4992376;28;20022;-72
2023/09/22 02:57:07;;;;;;;2.35;1.83;;;28.30;54.60;;;;;;4992819;28;20442;-72
2023/09/22 02:59:33;;;;;;;1.50;1.40;;;28.30;54.60;;;;;;4992328;28;20124;-74
2023/09/22 03:01:59;;;;;;;2.03;1.35;;;28.20;54.70;;;;;;4990969;28;20125;-74
2023/09/22 03:04:25;;;;;;;2.65;1.65;;;28.20;54.70;;;;;;4992451;28;20121;-74
2023/09/22 03:06:52;;;;;;;2.25;1.83;;;28.30;54.70;;;;;;4992132;28;20113;-73
2023/09/22 03:09:18;;;;;;;1.80;1.55;;;28.30;54.80;;;;;;4996751;28;20026;-74
2023/09/22 03:11:44;;;;;;;1.65;1.55;;;28.30;54.80;;;;;;5011810;28;20033;-74
2023/09/22 03:14:10;;;;;;;1.83;1.40;;;28.20;54.80;;;;;;5013973;28;20479;-72
2023/09/22 03:16:37;;;;;;;1.55;1.45;;;28.30;54.80;;;;;;5014559;28;20036;-71
2023/09/22 03:19:03;;;;;;;2.25;1.70;;;28.30;54.80;;;;;;5015696;28;20494;-71
2023/09/22 03:21:29;;;;;;;13.07;1.70;;;28.40;54.80;;;;;;5014129;28;20057;-71
2023/09/22 03:23:55;;;;;;;1.42;1.33;;;28.30;54.80;;;;;;4998220;28;20480;-72
2023/09/22 03:26:22;;;;;;;3.38;1.45;;;28.40;54.90;;;;;;5014130;28;20124;-72
2023/09/22 03:28:48;;;;;;;1.80;1.70;;;28.10;54.90;;;;;;5014947;28;20080;-72
2023/09/22 03:31:25;;;;;;;1.92;1.52;;;28.30;54.90;;;;;;5014380;28;20471;-72
2023/09/22 03:33:51;;;;;;;2.55;2.17;;;28.30;54.90;;;;;;5014117;28;20084;-71
2023/09/22 03:36:19;;;;;;;4.13;1.88;;;28.30;54.90;;;;;;5014339;28;20034;-72
2023/09/22 03:38:47;;;;;;;1.77;1.60;;;28.30;54.90;;;;;;5014192;28;20038;-72
2023/09/22 03:41:17;;;;;;;2.22;1.98;;;28.30;54.80;;;;;;5014129;28;20057;-72
2023/09/22 03:43:44;;;;;;;1.23;1.13;;;28.40;54.90;;;;;;5014245;28;20042;-73
2023/09/22 03:46:11;;;;;;;2.92;2.05;;;28.30;54.90;;;;;;5015289;28;20029;-74
2023/09/22 03:48:38;;;;;;;1.95;1.52;;;28.20;54.90;;;;;;5014829;28;20022;-72
2023/09/22 03:51:05;;;;;;;2.05;1.42;;;28.30;54.90;;;;;;5014025;28;20069;-68
2023/09/22 03:53:31;;;;;;;2.38;1.50;;;28.20;54.90;;;;;;5013962;28;20069;-72
2023/09/22 03:55:57;;;;;;;1.45;1.30;;;28.20;54.80;;;;;;5013998;28;20045;-73
2023/09/22 03:58:23;;;;;;;2.42;1.50;;;28.20;54.70;;;;;;4997534;28;20034;-75
2023/09/22 04:00:53;;;;;;;1.35;1.20;;;28.20;54.60;;;;;;5015179;28;20041;-75
2023/09/22 04:03:20;;;;;;;1.65;1.55;;;28.10;54.50;;;;;;5007362;28;20114;-72
2023/09/22 04:05:46;;;;;;;1.90;1.73;;;28.40;54.50;;;;;;4994126;28;20090;-75
2023/09/22 04:08:12;;;;;;;3.05;1.98;;;28.30;54.40;;;;;;4994995;28;20027;-74
2023/09/22 04:10:41;;;;;;;2.53;1.70;;;28.60;55.30;;;;;;4993741;28;20069;-74
2023/09/22 04:13:07;;;;;;;6.63;2.08;;;29.00;54.00;;;;;;4977690;28;20477;-75
2023/09/22 04:15:33;;;;;;;2.40;1.70;;;29.20;53.40;;;;;;4995138;28;20123;-74
2023/09/22 04:17:59;;;;;;;4.05;2.10;;;29.40;52.10;;;;;;4995154;28;20423;-73
2023/09/22 04:20:32;;;;;;;3.30;2.17;;;29.20;52.40;;;;;;4994815;28;20031;-74
2023/09/22 04:22:59;;;;;;;3.00;1.80;;;29.30;51.50;;;;;;4994996;28;20073;-73
2023/09/22 04:25:34;;;;;;;3.83;1.63;;;29.10;50.20;;;;;;4994384;28;20454;-72
2023/09/22 04:28:11;;;;;;;1.70;1.60;;;29.00;49.70;;;;;;4994849;28;20038;-71
2023/09/22 04:30:38;;;;;;;1.60;1.50;;;29.00;50.00;;;;;;4993546;28;20081;-71
2023/09/22 04:33:04;;;;;;;4.47;1.60;;;28.90;49.40;;;;;;4994363;28;20042;-73
2023/09/22 04:35:32;;;;;;;1.92;1.60;;;28.90;49.60;;;;;;4993293;28;20065;-74
2023/09/22 04:37:59;;;;;;;3.17;1.73;;;28.90;49.70;;;;;;4994167;28;20509;-71
2023/09/22 04:40:29;;;;;;;1.50;1.40;;;28.80;49.80;;;;;;4994190;28;20510;-73
2023/09/22 04:42:55;;;;;;;3.20;1.40;;;28.80;49.90;;;;;;4994343;28;20104;-70
2023/09/22 04:45:23;;;;;;;2.88;1.50;;;28.70;49.90;;;;;;4994255;28;20443;-70
2023/09/22 04:47:52;;;;;;;4.38;1.73;;;28.80;49.90;;;;;;4994395;28;20031;-74
2023/09/22 04:50:18;;;;;;;1.55;1.45;;;28.80;50.00;;;;;;4992961;28;20383;-74
2023/09/22 04:52:45;;;;;;;2.83;1.88;;;28.80;48.90;;;;;;4994176;28;20379;-75
2023/09/22 04:55:11;;;;;;;1.90;1.75;;;28.90;48.30;;;;;;4993034;28;20027;-75
2023/09/22 04:57:38;;;;;;;3.88;1.70;;;28.70;47.50;;;;;;4994732;28;20034;-75
2023/09/22 05:00:15;;;;;;;2.53;1.88;;;28.60;46.70;;;;;;4992611;28;20550;-72
2023/09/22 05:02:43;;;;;;;3.75;1.92;;;28.70;47.20;;;;;;4990890;28;20387;-75
2023/09/22 05:05:10;;;;;;;2.78;2.08;;;28.60;48.70;;;;;;4995445;28;20110;-74
2023/09/22 05:07:37;;;;;;;2.95;2.00;;;28.80;50.20;;;;;;5011928;28;20037;-73
2023/09/22 05:10:05;;;;;;;4.07;1.88;;;28.90;50.80;;;;;;5011865;28;20030;-75
2023/09/22 05:12:31;;;;;;;2.33;2.08;;;29.00;52.30;;;;;;5011537;28;20132;-74
2023/09/22 05:14:58;;;;;;;2.83;2.60;;;29.30;53.00;;;;;;5011588;28;20056;-71
2023/09/22 05:17:24;;;;;;;3.50;2.50;;;29.40;51.20;;;;;;5011251;28;20037;-71
2023/09/22 05:19:51;;;;;;;2.78;2.50;;;29.20;51.50;;;;;;5011008;28;20557;-70
2023/09/22 05:22:17;;;;;;;5.28;2.55;;;29.30;50.50;;;;;;5010468;28;20103;-72
2023/09/22 05:24:47;;;;;;;3.58;2.33;;;29.30;51.20;;;;;;5010886;28;20030;-73
2023/09/22 05:27:15;;;;;;;9.10;2.40;;;29.30;49.50;;;;;;5010920;28;20041;-67
2023/09/22 05:29:41;;;;;;;2.88;2.67;;;29.10;50.70;;;;;;5011818;28;20040;-70
2023/09/22 05:32:08;;;;;;;2.88;2.00;;;29.10;49.10;;;;;;5012813;28;20407;-69
2023/09/22 05:34:34;;;;;;;2.83;1.90;;;29.10;48.20;;;;;;5012814;28;20029;-70
2023/09/22 05:37:03;;;;;;;3.80;2.00;;;29.00;48.20;;;;;;5011833;28;20032;-67
2023/09/22 05:39:29;;;;;;;3.80;2.08;;;29.00;47.40;;;;;;5012920;28;20070;-69
2023/09/22 05:41:55;;;;;;;4.60;2.00;;;29.00;47.60;;;;;;5012850;28;20102;-68
2023/09/22 05:44:21;;;;;;;2.42;2.22;;;29.00;47.80;;;;;;5012679;28;20049;-69
2023/09/22 05:46:51;;;;;;;2.88;1.85;;;29.00;47.80;;;;;;5011646;28;20065;-72
2023/09/22 05:49:17;;;;;;;2.50;2.30;;;29.00;47.90;;;;;;5012526;28;20033;-70
2023/09/22 05:51:43;;;;;;;2.60;1.77;;;29.00;47.40;;;;;;5012553;28;20044;-71
2023/09/22 05:54:09;;;;;;;3.33;2.20;;;28.90;46.70;;;;;;5012332;28;20041;-70
2023/09/22 05:56:35;;;;;;;4.80;2.38;;;28.90;46.70;;;;;;5012639;28;20038;-69
2023/09/22 05:59:03;;;;;;;2.65;2.15;;;28.80;46.90;;;;;;5009386;28;20477;-72
2023/09/22 06:01:37;;;;;;;3.55;2.33;;;28.70;47.00;;;;;;5012586;28;20048;-72
2023/09/22 06:04:06;;;;;;;4.05;2.13;;;28.90;47.40;;;;;;5012390;28;20038;-71
2023/09/22 06:06:32;;;;;;;4.10;2.17;;;28.70;47.50;;;;;;5012490;28;20026;-69
2023/09/22 06:08:59;;;;;;;8.20;2.28;;;28.60;47.80;;;;;;5012427;28;20030;-69
2023/09/22 06:11:26;;;;;;;3.00;2.58;;;28.70;48.10;;;;;;5011127;28;20504;-69
2023/09/22 06:13:52;;;;;;;7.55;2.83;;;28.80;48.80;;;;;;5011281;28;20643;-68
2023/09/22 06:16:18;;;;;;;3.33;2.28;;;28.70;48.80;;;;;;5012404;28;20045;-70
2023/09/22 06:18:45;;;;;;;2.15;1.92;;;28.60;49.20;;;;;;5011086;28;20033;-70
2023/09/22 06:21:11;;;;;;;2.70;2.03;;;28.60;49.10;;;;;;5012363;28;20081;-69
2023/09/22 06:23:38;;;;;;;3.72;2.60;;;28.80;49.20;;;;;;5012276;28;20068;-72
2023/09/22 06:26:08;;;;;;;5.22;1.90;;;28.60;49.10;;;;;;5009686;28;20014;-72
2023/09/22 06:28:34;;;;;;;2.33;2.00;;;28.60;49.20;;;;;;4994018;28;20106;-73
2023/09/22 06:31:04;;;;;;;4.10;1.95;;;28.70;49.30;;;;;;5003604;28;20132;-71
2023/09/22 06:33:31;;;;;;;3.95;2.25;;;28.50;49.60;;;;;;5011816;28;20045;-72
2023/09/22 06:36:04;;;;;;;3.00;2.50;;;28.40;50.20;;;;;;5010926;28;20026;-73
2023/09/22 06:38:33;;;;;;;5.90;2.50;;;28.60;51.00;;;;;;5012334;28;20026;-74
2023/09/22 06:41:00;;;;;;;7.35;2.25;;;28.40;50.30;;;;;;4994158;28;20030;-74
2023/09/22 06:43:27;;;;;;;4.03;2.70;;;28.60;50.40;;;;;;5000470;28;20430;-73
2023/09/22 06:45:56;;;;;;;3.55;2.45;;;28.50;50.20;;;;;;4993109;28;20446;-75
2023/09/22 06:48:25;;;;;;;5.93;2.38;;;28.40;50.10;;;;;;5011301;28;20050;-73
2023/09/22 06:50:53;;;;;;;4.38;2.63;;;28.50;49.80;;;;;;5011861;28;20036;-74
2023/09/22 06:53:21;;;;;;;3.30;2.38;;;28.50;49.80;;;;;;5011937;28;20406;-73
2023/09/22 06:55:48;;;;;;;2.50;2.15;;;28.50;49.80;;;;;;5011912;28;20115;-72
2023/09/22 06:58:14;;;;;;;4.93;3.15;;;28.40;50.60;;;;;;5011293;28;20109;-73
2023/09/22 07:00:40;;;;;;;3.75;2.22;;;28.40;51.10;;;;;;5011527;28;20038;-73
2023/09/22 07:03:08;;;;;;;4.88;2.25;;;28.40;50.90;;;;;;5028914;28;20057;-73
2023/09/22 07:05:34;;;;;;;4.90;2.42;;;28.30;50.70;;;;;;4989452;28;20046;-75
2023/09/22 07:08:03;;;;;;;2.78;1.65;;;28.30;50.50;;;;;;4989722;28;20502;-74
2023/09/22 07:10:30;;;;;;;3.75;1.67;;;28.40;50.80;;;;;;4989705;28;20459;-71
2023/09/22 07:12:58;;;;;;;4.20;2.08;;;28.40;50.30;;;;;;4989508;28;20117;-73
2023/09/22 07:15:24;;;;;;;2.13;1.90;;;28.20;50.40;;;;;;4989487;28;20119;-73
2023/09/22 07:17:50;;;;;;;1.83;1.73;;;28.50;50.60;;;;;;4989285;28;20125;-72
2023/09/22 07:20:16;;;;;;;2.70;2.10;;;28.40;50.70;;;;;;4989157;28;20139;-74
2023/09/22 07:22:43;;;;;;;5.45;2.10;;;28.40;50.60;;;;;;4989079;28;20531;-73
2023/09/22 07:25:09;;;;;;;6.68;2.28;;;28.40;50.60;;;;;;4988748;28;20107;-73
2023/09/22 07:27:39;;;;;;;3.78;1.80;;;28.30;50.70;;;;;;4972127;28;20924;-73
2023/09/22 07:30:09;;;;;;;3.85;1.98;;;28.40;50.80;;;;;;4987386;28;20054;-72
2023/09/22 07:32:38;;;;;;;5.07;2.10;;;28.40;50.60;;;;;;4989321;28;20042;-72
2023/09/22 07:35:04;;;;;;;3.38;1.92;;;28.40;51.10;;;;;;4989056;28;20094;-72
2023/09/22 07:37:30;;;;;;;3.33;1.98;;;28.40;51.40;;;;;;4989568;28;20058;-75
2023/09/22 07:39:56;;;;;;;4.88;1.73;;;28.40;51.70;;;;;;4984245;28;20508;-73
2023/09/22 07:42:22;;;;;;;3.63;2.38;;;28.50;51.90;;;;;;4979445;28;20148;-73
2023/09/22 07:44:48;;;;;;;1.60;1.48;;;28.60;51.90;;;;;;5011566;28;20038;-73
2023/09/22 07:47:15;;;;;;;2.63;1.90;;;28.50;52.10;;;;;;5008661;28;20056;-74
2023/09/22 07:49:42;;;;;;;3.58;2.35;;;28.50;52.00;;;;;;5008356;28;20132;-75
2023/09/22 07:52:11;;;;;;;2.88;2.08;;;28.60;52.10;;;;;;5008353;28;20046;-73
2023/09/22 07:54:37;;;;;;;2.47;1.83;;;28.50;52.10;;;;;;5008383;28;20038;-73
2023/09/22 07:57:04;;;;;;;5.38;2.00;;;28.40;52.10;;;;;;5008459;28;20126;-73
2023/09/22 07:59:31;;;;;;;3.28;2.50;;;28.50;52.00;;;;;;5009489;28;20059;-75
2023/09/22 08:01:59;;;;;;;6.63;3.88;;;28.80;55.70;;;;;;5012257;28;20593;-76
2023/09/22 08:04:26;;;;;;;3.08;2.17;;;29.30;55.60;;;;;;5012213;28;20034;-73
2023/09/22 08:06:52;;;;;;;3.28;1.98;;;29.60;54.50;;;;;;5012015;28;20489;-72
2023/09/22 08:09:20;;;;;;;3.15;1.80;;;29.60;52.50;;;;;;5012344;28;20485;-73
2023/09/22 08:11:46;;;;;;;4.00;1.95;;;29.50;51.80;;;;;;4995889;28;20049;-72
2023/09/22 08:14:13;;;;;;;4.80;2.08;;;29.30;51.60;;;;;;5011732;28;20030;-72
2023/09/22 08:16:40;;;;;;;5.72;2.25;;;29.30;51.60;;;;;;5012171;28;20034;-69
2023/09/22 08:19:11;;;;;;;6.50;2.58;;;29.20;53.80;;;;;;5006051;28;20144;-71
2023/09/22 08:21:38;;;;;;;12.30;3.67;;;29.40;53.20;;;;;;5014484;28;20575;-74
2023/09/22 08:24:05;;;;;;;39.75;10.65;;;29.40;52.20;;;;;;5012779;28;20046;-74
2023/09/22 08:26:31;;;;;;;50.78;14.63;;;29.40;53.30;;;;;;5014116;28;20095;-77
2023/09/22 08:28:57;;;;;;;30.52;10.65;;;29.50;54.50;;;;;;5014129;28;20043;-74
2023/09/22 08:31:29;;;;;;;65.35;16.30;;;29.50;54.70;;;;;;5014421;28;20105;-72
2023/09/22 08:33:55;;;;;;;50.53;23.70;;;29.60;55.90;;;;;;5014620;28;20026;-71
2023/09/22 08:36:21;;;;;;;21.33;6.78;;;29.80;58.20;;;;;;5014425;28;20034;-75
2023/09/22 08:38:48;;;;;;;38.03;10.60;;;29.90;56.40;;;;;;5013769;28;20026;-74
2023/09/22 08:41:15;;;;;;;15.05;4.32;;;29.90;54.70;;;;;;5013929;28;20029;-72
2023/09/22 08:43:41;;;;;;;6.28;3.45;;;30.00;56.80;;;;;;5013889;28;20040;-71
2023/09/22 08:46:07;;;;;;;6.35;3.10;;;29.90;53.50;;;;;;5012303;28;20060;-73
2023/09/22 08:48:34;;;;;;;7.22;3.85;;;29.80;51.50;;;;;;5012985;28;20036;-73
2023/09/22 08:51:02;;;;;;;8.15;3.13;;;29.90;50.30;;;;;;5014057;28;20042;-72
2023/09/22 08:53:29;;;;;;;5.20;2.78;;;29.90;49.70;;;;;;5013474;28;20038;-73
2023/09/22 08:55:56;;;;;;;6.63;3.03;;;29.90;49.70;;;;;;5012747;28;20045;-73
2023/09/22 08:58:22;;;;;;;5.22;2.55;;;29.90;49.80;;;;;;5013707;28;20117;-76
2023/09/22 09:00:51;;;;;;;8.95;2.97;;;29.80;50.00;;;;;;5013555;28;20113;-73
2023/09/22 09:03:20;;;;;;;5.93;2.78;;;29.80;50.00;;;;;;5013528;28;20079;-73
2023/09/22 09:05:47;;;;;;;3.33;2.47;;;29.80;49.90;;;;;;5013775;28;20038;-73
2023/09/22 09:08:14;;;;;;;2.17;1.98;;;29.80;49.90;;;;;;5013726;28;20038;-72
2023/09/22 09:10:42;;;;;;;6.30;2.35;;;29.80;49.80;;;;;;5013568;28;20030;-73
2023/09/22 09:13:16;;;;;;;4.40;2.45;;;29.80;49.90;;;;;;5013506;28;20040;-71
2023/09/22 09:15:47;;;;;;;5.65;2.30;;;29.70;49.90;;;;;;5027655;28;20412;-73
2023/09/22 09:18:19;;;;;;;4.32;1.73;;;29.70;50.10;;;;;;5013557;28;20065;-72
2023/09/22 09:21:14;;;;;;;6.20;2.25;;;29.80;50.20;;;;;;5013694;28;20119;-73
2023/09/22 09:23:55;;;;;;;3.85;2.40;;;29.60;50.30;;;;;;5013752;28;20061;-73
2023/09/22 09:26:29;;;;;;;2.58;1.98;;;29.60;50.30;;;;;;5013135;28;20034;-73
2023/09/22 09:28:56;;;;;;;3.40;2.35;;;29.70;50.30;;;;;;5012367;28;20053;-74
2023/09/22 09:31:45;;;;;;;6.28;2.17;;;29.60;50.30;;;;;;5011747;28;20370;-72
2023/09/22 09:34:12;;;;;;;4.55;1.80;;;29.60;50.10;;;;;;5013370;28;20367;-72
2023/09/22 09:36:38;;;;;;;6.20;2.30;;;29.60;50.20;;;;;;5012918;28;20026;-74
2023/09/22 09:39:04;;;;;;;7.05;2.10;;;29.60;50.20;;;;;;5013022;28;20091;-70
2023/09/22 09:41:31;;;;;;;4.43;2.40;;;29.40;50.20;;;;;;5013414;28;20409;-71
2023/09/22 09:44:01;;;;;;;2.35;1.67;;;29.50;50.70;;;;;;5012581;28;20038;-70
2023/09/22 09:46:29;;;;;;;2.60;2.40;;;29.60;50.20;;;;;;5012191;28;20034;-71
2023/09/22 09:48:56;;;;;;;3.60;2.40;;;29.50;51.40;;;;;;5012491;28;20398;-70
2023/09/22 09:51:24;;;;;;;2.17;1.85;;;29.70;54.20;;;;;;5012461;28;20045;-68
2023/09/22 09:53:59;;;;;;;3.47;2.70;;;29.70;53.80;;;;;;5012212;28;20092;-70
2023/09/22 09:56:26;;;;;;;2.55;2.13;;;29.90;55.20;;;;;;5012048;28;20048;-73
2023/09/22 09:58:53;;;;;;;7.43;2.78;;;30.10;56.30;;;;;;5012185;28;20041;-71
2023/09/22 10:01:19;;;;;;;4.63;2.80;;;30.50;59.10;;;;;;5008942;28;20041;-73
2023/09/22 10:03:46;;;;;;;6.10;2.85;;;30.60;57.70;;;;;;5011017;28;20049;-72
2023/09/22 10:06:16;;;;;;;3.13;2.13;;;30.40;54.80;;;;;;5010641;28;20108;-71
2023/09/22 10:08:42;;;;;;;6.18;2.85;;;30.10;53.30;;;;;;5012098;28;20156;-72
2023/09/22 10:11:12;;;;;;;3.75;2.22;;;30.20;53.00;;;;;;5012402;28;20045;-71
2023/09/22 10:13:40;;;;;;;5.18;2.05;;;30.00;52.60;;;;;;5011925;28;20037;-72
2023/09/22 10:16:11;;;;;;;4.45;2.05;;;30.00;52.30;;;;;;5011851;28;20041;-73
2023/09/22 10:18:46;;;;;;;2.78;2.00;;;29.90;51.40;;;;;;5010764;28;20840;-67
2023/09/22 10:21:31;;;;;;;4.57;2.47;;;29.90;51.30;;;;;;5004985;28;20165;-73
2023/09/22 10:24:23;;;;;;;3.05;2.30;;;29.80;51.20;;;;;;4992170;28;20103;-73
2023/09/22 10:27:07;;;;;;;6.05;1.90;;;29.80;51.10;;;;;;4992760;28;20046;-75
2023/09/22 10:29:34;;;;;;;2.42;2.15;;;29.70;51.10;;;;;;4991729;28;20042;-75
2023/09/22 10:32:18;;;;;;;2.63;2.38;;;29.70;50.80;;;;;;5005859;28;20133;-74
2023/09/22 10:34:51;;;;;;;4.97;2.72;;;29.70;50.90;;;;;;5012016;28;20030;-73
2023/09/22 10:37:26;;;;;;;4.18;1.90;;;29.60;51.00;;;;;;5011910;28;20088;-72
2023/09/22 10:40:11;;;;;;;7.65;2.60;;;29.60;51.10;;;;;;5012294;28;20042;-73
2023/09/22 10:42:49;;;;;;;2.97;2.28;;;29.60;51.00;;;;;;5028983;28;20045;-74
2023/09/22 10:45:28;;;;;;;4.47;3.47;;;29.50;51.00;;;;;;5028907;28;20037;-71
2023/09/22 10:47:57;;;;;;;8.50;2.90;;;29.60;54.10;;;;;;5011538;28;20465;-72
2023/09/22 10:50:30;;;;;;;6.53;2.47;;;29.90;55.10;;;;;;5012611;28;20161;-72
2023/09/22 10:52:57;;;;;;;7.85;2.47;;;29.90;55.10;;;;;;5029141;28;20045;-71
2023/09/22 10:55:23;;;;;;;7.20;3.42;;;29.90;52.60;;;;;;5027180;28;20375;-72
2023/09/22 10:57:50;;;;;;;5.72;2.47;;;30.00;52.50;;;;;;5006859;28;20052;-72
2023/09/22 11:00:18;;;;;;;2.67;2.25;;;29.80;51.60;;;;;;5006994;28;20052;-70
2023/09/22 11:02:44;;;;;;;4.82;2.30;;;29.90;51.30;;;;;;4967463;28;20109;-70
2023/09/22 11:05:16;;;;;;;7.78;2.63;;;29.90;51.30;;;;;;4967668;28;20073;-72
2023/09/22 11:07:43;;;;;;;2.85;2.15;;;29.70;51.20;;;;;;4951682;28;20392;-72
2023/09/22 11:10:20;;;;;;;6.40;2.42;;;29.80;51.20;;;;;;4968792;28;20039;-73
2023/09/22 11:12:50;;;;;;;3.67;2.70;;;29.60;51.20;;;;;;4967939;28;20418;-76
2023/09/22 11:15:17;;;;;;;3.17;2.25;;;29.70;51.20;;;;;;4948773;29;20174;-71
2023/09/22 11:17:46;;;;;;;3.03;2.28;;;29.70;51.20;;;;;;4948606;29;20055;-78
2023/09/22 11:20:22;;;;;;;3.17;2.63;;;29.70;51.30;;;;;;4949055;29;20577;-78
2023/09/22 11:22:50;;;;;;;2.42;2.22;;;29.60;51.40;;;;;;4949009;28;20055;-70
2023/09/22 11:25:16;;;;;;;5.78;2.80;;;29.60;51.50;;;;;;4949236;29;20054;-78
2023/09/22 11:27:52;;;;;;;3.25;2.33;;;29.50;51.70;;;;;;4949790;29;20121;-76
2023/09/22 11:30:25;;;;;;;2.90;2.60;;;29.40;51.90;;;;;;4947713;29;20131;-75
2023/09/22 11:32:52;;;;;;;7.40;2.67;;;29.50;52.10;;;;;;4947741;29;20073;-73
2023/09/22 11:35:41;;;;;;;6.47;2.85;;;29.50;52.20;;;;;;4932661;29;20400;-70
2023/09/22 11:38:28;;;;;;;4.78;3.40;;;29.50;52.30;;;;;;4952432;29;20055;-67
2023/09/22 11:41:13;;;;;;;3.33;2.58;;;29.50;52.50;;;;;;4984251;28;20080;-70
2023/09/22 11:43:47;;;;;;;5.32;2.42;;;29.40;52.60;;;;;;4992864;28;20053;-74
2023/09/22 11:46:15;;;;;;;3.95;2.83;;;29.40;52.60;;;;;;4993560;28;20042;-68
2023/09/22 11:48:57;;;;;;;3.30;2.75;;;29.40;53.20;;;;;;4993827;28;20417;-70
2023/09/22 11:51:48;;;;;;;3.75;2.22;;;29.40;56.20;;;;;;4995128;28;20124;-71
2023/09/22 11:54:16;;;;;;;3.40;2.47;;;29.70;55.00;;;;;;4994971;28;20038;-72
2023/09/22 11:56:42;;;;;;;7.03;2.30;;;29.60;54.50;;;;;;4994959;28;20038;-70
2023/09/22 11:59:09;;;;;;;7.93;2.13;;;29.40;54.10;;;;;;4994148;28;20042;-69
2023/09/22 12:01:36;;;;;;;3.20;2.47;;;29.40;54.10;;;;;;4994889;28;20516;-70
2023/09/22 12:04:04;;;;;;;3.15;2.50;;;29.40;53.80;;;;;;4995146;28;20041;-69
2023/09/22 12:06:31;;;;;;;3.90;2.65;;;29.40;53.60;;;;;;4993105;28;20149;-70
2023/09/22 12:08:58;;;;;;;5.15;2.58;;;29.50;53.30;;;;;;4996064;28;20035;-73
2023/09/22 12:11:27;;;;;;;5.00;2.45;;;29.40;52.90;;;;;;4994751;28;20467;-69
2023/09/22 12:13:53;;;;;;;6.70;2.58;;;29.30;53.00;;;;;;4995023;28;20442;-72
2023/09/22 12:16:19;;;;;;;3.78;2.22;;;29.50;53.20;;;;;;4995933;28;20078;-68
2023/09/22 12:18:45;;;;;;;5.80;2.40;;;29.40;53.40;;;;;;5014707;28;20030;-70
2023/09/22 12:21:11;;;;;;;8.43;2.10;;;29.30;53.20;;;;;;5014442;28;20068;-70
2023/09/22 12:23:37;;;;;;;3.20;2.08;;;29.50;53.10;;;;;;5014154;28;20034;-70
2023/09/22 12:26:03;;;;;;;2.53;2.28;;;29.40;52.90;;;;;;5014939;28;20553;-68
2023/09/22 12:28:29;;;;;;;4.28;2.17;;;29.50;52.80;;;;;;5014365;28;20045;-69
2023/09/22 12:30:55;;;;;;;7.10;2.20;;;29.50;52.80;;;;;;5014430;28;20038;-70
2023/09/22 12:33:21;;;;;;;3.92;2.90;;;29.50;52.80;;;;;;5014261;28;20061;-70
2023/09/22 12:35:48;;;;;;;5.72;2.80;;;29.30;52.80;;;;;;4996534;28;20037;-70
2023/09/22 12:38:14;;;;;;;6.45;2.67;;;29.30;52.80;;;;;;5013923;28;20121;-70
2023/09/22 12:40:40;;;;;;;6.07;2.63;;;29.30;52.70;;;;;;5014079;28;20433;-69
2023/09/22 12:43:06;;;;;;;6.35;2.55;;;29.30;52.80;;;;;;5014424;28;20038;-70
2023/09/22 12:45:32;;;;;;;2.78;1.90;;;29.50;52.80;;;;;;5009061;28;20031;-70
2023/09/22 12:47:58;;;;;;;7.57;2.17;;;29.40;52.80;;;;;;4994447;28;20058;-70
2023/09/22 12:50:25;;;;;;;5.13;1.90;;;29.30;52.80;;;;;;5001363;28;20084;-70